createdAt,value
2022-12-04T00:01:57.014Z,19.17
2022-12-04T00:04:42.245Z,21.17
2022-12-04T00:07:25.964Z,20.10
2022-12-04T00:10:11.176Z,20.27
2022-12-04T00:12:56.066Z,21.20
2022-12-04T00:15:43.235Z,22.30
2022-12-04T00:18:27.102Z,24.70
2022-12-04T00:21:14.236Z,21.87
2022-12-04T00:23:58.120Z,23.23
2022-12-04T00:26:41.921Z,21.27
2022-12-04T00:29:25.699Z,19.13
2022-12-04T00:32:09.503Z,0.30
2022-12-04T00:34:53.706Z,3.83
2022-12-04T00:37:38.913Z,22.43
2022-12-04T00:40:22.761Z,20.33
2022-12-04T00:43:06.506Z,22.10
2022-12-04T00:45:50.719Z,22.47
2022-12-04T00:48:34.964Z,18.30
2022-12-04T00:51:21.094Z,21.50
2022-12-04T00:54:06.299Z,18.90
2022-12-04T00:56:50.068Z,17.87
2022-12-04T00:59:33.733Z,19.60
2022-12-04T01:02:17.661Z,18.27
2022-12-04T01:05:02.336Z,19.70
2022-12-04T01:07:47.681Z,21.07
2022-12-04T01:10:32.818Z,18.87
2022-12-04T01:13:16.569Z,22.10
2022-12-04T01:16:00.257Z,22.97
2022-12-04T01:18:44.106Z,26.13
2022-12-04T01:21:27.880Z,23.23
2022-12-04T01:24:11.707Z,24.67
2022-12-04T01:26:56.850Z,25.20
2022-12-04T01:29:40.578Z,21.43
2022-12-04T01:32:24.358Z,31.50
2022-12-04T01:35:08.902Z,34.03
2022-12-04T01:37:53.014Z,31.50
2022-12-04T01:40:36.853Z,32.53
2022-12-04T01:43:22.620Z,32.00
2022-12-04T01:46:07.730Z,30.03
2022-12-04T01:48:54.067Z,29.43
2022-12-04T01:51:43.843Z,25.90
2022-12-04T01:54:31.443Z,25.77
2022-12-04T01:57:17.569Z,24.37
2022-12-04T02:00:08.192Z,23.13
2022-12-04T02:02:52.159Z,23.47
2022-12-04T02:05:36.090Z,22.43
2022-12-04T02:08:20.496Z,22.00
2022-12-04T02:11:13.532Z,23.77
2022-12-04T02:14:26.543Z,22.27
2022-12-04T02:17:21.761Z,21.63
2022-12-04T02:20:16.257Z,22.83
2022-12-04T02:23:24.404Z,20.23
2022-12-04T02:26:31.759Z,20.33
2022-12-04T02:29:25.022Z,21.67
2022-12-04T02:32:18.707Z,22.07
2022-12-04T02:35:07.496Z,22.17
2022-12-04T02:37:55.995Z,23.73
2022-12-04T02:40:46.573Z,22.20
2022-12-04T02:43:38.090Z,25.83
2022-12-04T02:46:29.749Z,26.60
2022-12-04T02:49:18.766Z,27.13
2022-12-04T02:52:04.599Z,24.63
2022-12-04T02:54:55.408Z,24.80
2022-12-04T02:57:44.434Z,26.63
2022-12-04T03:00:30.386Z,24.47
2022-12-04T03:03:21.870Z,19.80
2022-12-04T03:06:09.277Z,19.20
2022-12-04T03:08:59.824Z,19.70
2022-12-04T03:11:48.424Z,17.70
2022-12-04T03:14:36.228Z,19.40
2022-12-04T03:17:24.281Z,20.63
2022-12-04T03:20:14.462Z,22.43
2022-12-04T03:23:03.677Z,19.17
2022-12-04T03:25:54.435Z,21.60
2022-12-04T03:28:47.953Z,20.23
2022-12-04T03:31:40.715Z,18.80
2022-12-04T03:34:29.091Z,21.47
2022-12-04T03:37:18.468Z,22.17
2022-12-04T03:40:08.229Z,19.13
2022-12-04T03:43:01.220Z,17.70
2022-12-04T03:45:49.429Z,31.33
2022-12-04T03:48:41.020Z,26.07
2022-12-04T03:51:33.498Z,17.47
2022-12-04T03:54:23.880Z,21.20
2022-12-04T03:57:15.638Z,21.13
2022-12-04T04:00:06.213Z,21.37
2022-12-04T04:02:54.950Z,20.87
2022-12-04T04:05:43.129Z,23.00
2022-12-04T04:08:34.229Z,24.40
2022-12-04T04:11:24.870Z,22.63
2022-12-04T04:14:30.662Z,20.43
2022-12-04T04:17:38.648Z,20.93
2022-12-04T04:20:45.541Z,22.93
2022-12-04T04:23:50.150Z,22.30
2022-12-04T04:26:40.352Z,22.20
2022-12-04T04:29:24.099Z,28.03
2022-12-04T04:32:15.254Z,36.70
2022-12-04T04:35:04.877Z,28.13
2022-12-04T04:37:56.616Z,28.90
2022-12-04T04:40:47.886Z,29.47
2022-12-04T04:43:38.223Z,23.40
2022-12-04T04:46:26.805Z,23.77
2022-12-04T04:49:13.568Z,19.30
2022-12-04T04:51:58.570Z,26.60
2022-12-04T04:54:43.112Z,21.97
2022-12-04T04:57:28.617Z,30.13
2022-12-04T05:00:16.929Z,33.77
2022-12-04T05:03:00.902Z,26.80
2022-12-04T05:05:44.758Z,33.23
2022-12-04T05:08:28.572Z,26.17
2022-12-04T05:11:14.182Z,32.80
2022-12-04T05:13:58.071Z,22.20
2022-12-04T05:16:43.302Z,29.87
2022-12-04T05:19:44.746Z,24.60
2022-12-04T05:22:30.443Z,34.70
2022-12-04T05:25:14.265Z,30.40
2022-12-04T05:27:58.363Z,34.63
2022-12-04T05:30:42.715Z,30.53
2022-12-04T05:33:28.113Z,35.27
2022-12-04T05:36:13.326Z,31.60
2022-12-04T05:38:57.084Z,44.97
2022-12-04T05:41:40.973Z,35.03
2022-12-04T05:44:25.175Z,32.83
2022-12-04T05:47:09.205Z,36.97
2022-12-04T05:49:54.685Z,34.77
2022-12-04T05:52:38.942Z,30.67
2022-12-04T05:55:22.722Z,32.60
2022-12-04T05:58:06.596Z,31.87
2022-12-04T06:00:50.316Z,36.27
2022-12-04T06:03:34.161Z,29.87
2022-12-04T06:06:22.671Z,32.97
2022-12-04T06:09:08.423Z,34.90
2022-12-04T06:11:52.115Z,33.27
2022-12-04T06:14:39.539Z,28.33
2022-12-04T06:17:23.873Z,25.33
2022-12-04T06:20:11.774Z,26.77
2022-12-04T06:22:57.189Z,22.43
2022-12-04T06:25:40.970Z,20.97
2022-12-04T06:28:24.710Z,39.87
2022-12-04T06:31:11.159Z,33.73
2022-12-04T06:33:55.458Z,39.27
2022-12-04T06:36:39.274Z,46.70
2022-12-04T06:39:24.424Z,38.50
2022-12-04T06:42:08.488Z,40.27
2022-12-04T06:44:52.107Z,24.80
2022-12-04T06:47:36.379Z,11.50
2022-12-04T06:50:20.376Z,15.77
2022-12-04T06:53:08.307Z,19.93
2022-12-04T06:55:53.903Z,17.87
2022-12-04T06:58:38.742Z,25.27
2022-12-04T07:01:24.438Z,18.10
2022-12-04T07:04:08.388Z,12.37
2022-12-04T07:06:52.312Z,16.23
2022-12-04T07:09:36.125Z,10.27
2022-12-04T07:12:21.323Z,14.10
2022-12-04T07:15:05.750Z,10.13
2022-12-04T07:17:49.645Z,11.23
2022-12-04T07:20:33.541Z,12.10
2022-12-04T07:23:17.358Z,21.73
2022-12-04T07:26:05.820Z,19.47
2022-12-04T07:28:51.545Z,20.27
2022-12-04T07:31:35.963Z,14.63
2022-12-04T07:34:20.053Z,14.23
2022-12-04T07:37:04.385Z,16.43
2022-12-04T07:39:48.212Z,13.50
2022-12-04T07:42:31.952Z,9.77
2022-12-04T07:45:17.294Z,11.60
2022-12-04T07:48:01.130Z,15.77
2022-12-04T07:50:45.762Z,9.63
2022-12-04T07:53:29.535Z,10.07
2022-12-04T07:56:14.353Z,16.07
2022-12-04T07:58:59.557Z,15.07
2022-12-04T08:01:45.083Z,14.37
2022-12-04T08:04:29.049Z,17.90
2022-12-04T08:07:12.903Z,13.07
2022-12-04T08:09:57.096Z,16.33
2022-12-04T08:12:41.259Z,12.83
2022-12-04T08:15:25.072Z,14.37
2022-12-04T08:18:10.899Z,23.93
2022-12-04T08:20:55.197Z,22.90
2022-12-04T08:23:39.935Z,13.20
2022-12-04T08:26:26.015Z,20.83
2022-12-04T08:29:11.183Z,18.07
2022-12-04T08:31:55.999Z,16.07
2022-12-04T08:34:41.784Z,14.10
2022-12-04T08:37:29.307Z,8.93
2022-12-04T08:40:18.651Z,12.57
2022-12-04T08:43:07.665Z,12.70
2022-12-04T08:45:59.220Z,25.37
2022-12-04T08:48:45.140Z,17.70
2022-12-04T08:51:39.010Z,12.93
2022-12-04T08:54:25.722Z,26.03
2022-12-04T08:57:10.584Z,20.00
2022-12-04T08:59:55.684Z,16.50
2022-12-04T09:02:44.913Z,15.03
2022-12-04T09:05:32.115Z,21.03
2022-12-04T09:08:27.189Z,22.27
2022-12-04T09:11:16.111Z,11.77
2022-12-04T09:14:07.930Z,7.73
2022-12-04T09:16:53.460Z,20.30
2022-12-04T09:19:44.031Z,13.93
2022-12-04T09:22:51.334Z,10.30
2022-12-04T09:25:41.354Z,13.73
2022-12-04T09:31:26.566Z,7.87
2022-12-04T09:34:11.728Z,9.53
2022-12-04T09:36:56.951Z,9.77
2022-12-04T09:39:42.947Z,12.43
2022-12-04T09:42:38.036Z,11.30
2022-12-04T09:45:26.236Z,18.10
2022-12-04T09:48:14.581Z,22.87
2022-12-04T09:51:00.750Z,14.63
2022-12-04T09:53:49.701Z,22.00
2022-12-04T09:56:35.263Z,12.27
2022-12-04T09:59:25.619Z,17.13
2022-12-04T10:02:30.735Z,13.73
2022-12-04T10:05:22.720Z,18.20
2022-12-04T10:08:17.550Z,12.97
2022-12-04T10:11:11.432Z,26.10
2022-12-04T10:14:16.601Z,11.23
2022-12-04T10:17:32.478Z,13.80
2022-12-04T10:20:30.045Z,13.93
2022-12-04T10:23:25.454Z,21.77
2022-12-04T10:26:18.100Z,35.63
2022-12-04T10:29:06.436Z,28.57
2022-12-04T10:31:54.485Z,29.77
2022-12-04T10:34:45.635Z,17.23
2022-12-04T10:37:37.458Z,18.93
2022-12-04T10:40:28.953Z,17.03
2022-12-04T10:43:20.600Z,19.70
2022-12-04T10:46:07.253Z,20.10
2022-12-04T10:48:55.738Z,16.60
2022-12-04T10:51:44.708Z,17.23
2022-12-04T10:54:35.817Z,6.73
2022-12-04T10:57:21.232Z,18.93
2022-12-04T11:00:26.292Z,15.87
2022-12-04T11:03:24.714Z,9.00
2022-12-04T11:06:12.738Z,18.90
2022-12-04T11:09:03.389Z,14.33
2022-12-04T11:11:48.914Z,20.00
2022-12-04T11:14:34.378Z,11.97
2022-12-04T11:17:22.616Z,21.87
2022-12-04T11:20:15.093Z,15.50
2022-12-04T11:23:01.664Z,18.27
2022-12-04T11:25:51.725Z,19.07
2022-12-04T11:28:42.675Z,12.57
2022-12-04T11:31:28.503Z,15.80
2022-12-04T11:34:21.178Z,23.33
2022-12-04T11:37:08.879Z,8.00
2022-12-04T11:39:56.458Z,10.13
2022-12-04T11:42:43.377Z,12.17
2022-12-04T11:45:27.748Z,13.70
2022-12-04T11:48:18.359Z,15.97
2022-12-04T11:51:19.071Z,12.60
2022-12-04T11:54:12.379Z,12.47
2022-12-04T11:57:09.155Z,18.37
2022-12-04T12:00:10.050Z,13.27
2022-12-04T12:03:08.690Z,18.73
2022-12-04T12:06:09.288Z,11.97
2022-12-04T12:09:10.769Z,13.23
2022-12-04T12:12:03.312Z,10.67
2022-12-04T12:15:00.515Z,14.07
2022-12-04T12:17:52.842Z,16.90
2022-12-04T12:20:43.812Z,13.83
2022-12-04T12:23:45.760Z,11.87
2022-12-04T12:26:39.860Z,12.30
2022-12-04T12:29:41.042Z,13.00
2022-12-04T12:32:39.605Z,14.70
2022-12-04T12:35:32.097Z,18.67
2022-12-04T12:38:21.931Z,11.20
2022-12-04T12:41:13.169Z,16.03
2022-12-04T12:44:04.975Z,14.07
2022-12-04T12:46:54.292Z,15.47
2022-12-04T12:49:48.607Z,17.50
2022-12-04T12:52:41.766Z,21.60
2022-12-04T12:55:30.591Z,14.10
2022-12-04T12:58:19.003Z,19.70
2022-12-04T13:01:10.413Z,20.20
2022-12-04T13:04:07.224Z,12.87
2022-12-04T13:07:00.954Z,11.20
2022-12-04T13:09:54.071Z,15.60
2022-12-04T13:12:47.204Z,16.60
2022-12-04T13:15:40.520Z,10.50
2022-12-04T13:18:30.244Z,15.10
2022-12-04T13:21:30.853Z,18.87
2022-12-04T13:24:39.662Z,18.93
2022-12-04T13:27:34.866Z,16.57
2022-12-04T13:30:22.689Z,12.97
2022-12-04T13:33:53.604Z,13.13
2022-12-04T13:36:58.366Z,11.17
2022-12-04T13:40:28.966Z,20.77
2022-12-04T13:43:27.407Z,25.53
2022-12-04T13:46:30.987Z,24.43
2022-12-04T13:49:29.147Z,11.50
2022-12-04T13:52:25.838Z,8.67
2022-12-04T13:55:26.732Z,11.70
2022-12-04T13:58:30.735Z,10.23
2022-12-04T14:01:28.173Z,11.10
2022-12-04T14:04:26.601Z,9.67
2022-12-04T14:07:27.328Z,8.43
2022-12-04T14:10:30.191Z,13.83
2022-12-04T14:13:22.316Z,24.03
2022-12-04T14:16:21.392Z,21.83
2022-12-04T14:19:08.599Z,27.73
2022-12-04T14:21:54.368Z,11.67
2022-12-04T14:24:40.077Z,25.90
2022-12-04T14:27:35.250Z,26.13
2022-12-04T14:30:21.985Z,14.33
2022-12-04T14:33:13.585Z,18.73
2022-12-04T14:36:03.899Z,27.57
2022-12-04T14:38:50.508Z,30.63
2022-12-04T14:41:34.567Z,19.73
2022-12-04T14:44:26.908Z,53.00
2022-12-04T14:47:23.410Z,21.30
2022-12-04T14:50:29.476Z,18.77
2022-12-04T14:53:25.131Z,20.77
2022-12-04T14:56:25.897Z,16.23
2022-12-04T14:59:18.028Z,12.83
2022-12-04T15:02:02.148Z,12.53
2022-12-04T15:04:47.711Z,14.43
2022-12-04T15:07:33.691Z,9.23
2022-12-04T15:10:41.509Z,8.60
2022-12-04T15:13:29.280Z,7.63
2022-12-04T15:16:18.674Z,30.03
2022-12-04T15:19:02.811Z,16.03
2022-12-04T15:21:46.860Z,14.17
2022-12-04T15:24:32.654Z,15.17
2022-12-04T15:27:20.709Z,9.10
2022-12-04T15:30:05.785Z,10.83
2022-12-04T15:32:53.102Z,12.43
2022-12-04T15:35:39.161Z,21.27
2022-12-04T15:38:23.400Z,15.90
2022-12-04T15:41:26.213Z,20.43
2022-12-04T15:44:24.098Z,21.63
2022-12-04T15:47:18.955Z,9.87
2022-12-04T15:50:10.793Z,11.53
2022-12-04T15:52:59.894Z,10.47
2022-12-04T15:55:52.410Z,7.97
2022-12-04T15:58:40.028Z,9.43
2022-12-04T16:01:24.256Z,9.60
2022-12-04T16:04:22.551Z,15.20
2022-12-04T16:07:21.873Z,6.47
2022-12-04T16:10:22.740Z,10.03
2022-12-04T16:13:07.363Z,9.17
2022-12-04T16:15:52.901Z,5.07
2022-12-04T16:18:37.021Z,5.10
2022-12-04T16:21:24.297Z,16.37
2022-12-04T16:24:11.704Z,13.90
2022-12-04T16:26:57.217Z,10.03
2022-12-04T16:29:41.229Z,16.60
2022-12-04T16:32:32.077Z,15.50
2022-12-04T16:35:17.853Z,13.03
2022-12-04T16:38:01.798Z,35.13
2022-12-04T16:40:46.940Z,16.33
2022-12-04T16:43:30.906Z,8.17
2022-12-04T16:46:16.975Z,9.87
2022-12-04T16:49:07.280Z,9.90
2022-12-04T16:51:51.713Z,3.80
2022-12-04T16:54:35.955Z,7.67
2022-12-04T16:57:19.853Z,5.67
2022-12-04T17:00:03.945Z,10.03
2022-12-04T17:02:48.504Z,3.80
2022-12-04T17:05:35.934Z,7.10
2022-12-04T17:08:20.158Z,5.77
2022-12-04T17:11:04.269Z,5.07
2022-12-04T17:13:48.344Z,9.77
2022-12-04T17:16:32.337Z,7.50
2022-12-04T17:19:16.761Z,12.57
2022-12-04T17:22:02.519Z,16.80
2022-12-04T17:24:52.881Z,19.33
2022-12-04T17:27:38.848Z,15.70
2022-12-04T17:30:22.911Z,11.27
2022-12-04T17:33:07.303Z,6.57
2022-12-04T17:35:50.992Z,6.83
2022-12-04T17:38:37.852Z,10.97
2022-12-04T17:41:21.610Z,5.17
2022-12-04T17:44:05.859Z,6.00
2022-12-04T17:46:50.334Z,6.80
2022-12-04T17:49:34.820Z,10.07
2022-12-04T17:52:22.507Z,10.90
2022-12-04T17:55:09.071Z,8.07
2022-12-04T17:57:53.326Z,10.30
2022-12-04T18:00:38.179Z,12.87
2022-12-04T18:03:22.270Z,7.20
2022-12-04T18:06:13.629Z,11.57
2022-12-04T18:08:58.373Z,10.93
2022-12-04T18:11:45.695Z,6.97
2022-12-04T18:14:30.917Z,20.13
2022-12-04T18:17:17.750Z,10.67
2022-12-04T18:20:05.009Z,10.03
2022-12-04T18:22:49.747Z,11.27
2022-12-04T18:25:34.042Z,8.77
2022-12-04T18:28:19.570Z,11.87
2022-12-04T18:31:05.337Z,11.10
2022-12-04T18:33:49.493Z,7.83
2022-12-04T18:36:33.781Z,9.43
2022-12-04T18:39:19.971Z,8.97
2022-12-04T18:42:03.872Z,9.63
2022-12-04T18:44:49.692Z,9.20
2022-12-04T18:47:33.542Z,10.80
2022-12-04T18:50:17.756Z,6.67
2022-12-04T18:53:02.000Z,5.57
2022-12-04T18:55:45.784Z,7.77
2022-12-04T18:58:29.646Z,4.40
2022-12-04T19:01:16.748Z,4.63
2022-12-04T19:04:03.166Z,7.80
2022-12-04T19:06:50.630Z,5.73
2022-12-04T19:10:09.573Z,8.67
2022-12-04T19:12:39.903Z,9.33
2022-12-04T19:15:24.026Z,9.37
2022-12-04T19:18:09.403Z,8.10
2022-12-04T19:20:53.613Z,7.63
2022-12-04T19:23:37.517Z,12.47
2022-12-04T19:26:22.732Z,8.40
2022-12-04T19:29:08.625Z,10.60
2022-12-04T19:31:57.740Z,6.57
2022-12-04T19:34:44.673Z,8.90
2022-12-04T19:37:29.031Z,10.40
2022-12-04T19:40:14.752Z,10.23
2022-12-04T19:43:02.818Z,8.73
2022-12-04T19:45:49.473Z,8.07
2022-12-04T19:48:33.683Z,12.40
2022-12-04T19:51:20.308Z,11.53
2022-12-04T19:54:04.510Z,5.77
2022-12-04T19:56:52.655Z,6.83
2022-12-04T19:59:39.507Z,6.63
2022-12-04T20:02:25.852Z,5.50
2022-12-04T20:05:10.546Z,9.33
2022-12-04T20:10:40.969Z,9.90
2022-12-04T20:13:25.696Z,6.73
2022-12-04T20:16:12.088Z,5.60
2022-12-04T20:18:56.181Z,7.50
2022-12-04T20:21:40.222Z,6.47
2022-12-04T20:24:25.432Z,6.53
2022-12-04T20:27:09.292Z,8.93
2022-12-04T20:29:53.909Z,9.37
2022-12-04T20:32:37.887Z,10.67
2022-12-04T20:35:21.622Z,12.40
2022-12-04T20:38:05.973Z,18.83
2022-12-04T20:40:51.132Z,9.67
2022-12-04T20:43:35.241Z,8.40
2022-12-04T20:46:20.946Z,14.30
2022-12-04T20:49:07.117Z,4.30
2022-12-04T20:51:51.823Z,6.73
2022-12-04T20:54:41.381Z,5.83
2022-12-04T20:57:26.815Z,9.77
2022-12-04T21:00:11.632Z,8.70
2022-12-04T21:02:55.465Z,6.17
2022-12-04T21:05:39.462Z,4.43
2022-12-04T21:08:43.212Z,5.63
2022-12-04T21:11:30.076Z,7.80
2022-12-04T21:14:34.484Z,10.90
2022-12-04T21:17:20.489Z,10.13
2022-12-04T21:20:07.875Z,11.77
2022-12-04T21:22:52.108Z,6.50
2022-12-04T21:25:37.241Z,9.97
2022-12-04T21:28:21.159Z,6.90
2022-12-04T21:31:07.489Z,14.37
2022-12-04T21:33:51.617Z,8.77
2022-12-04T21:36:35.816Z,10.23
2022-12-04T21:39:19.817Z,11.97
2022-12-04T21:42:21.225Z,5.83
2022-12-04T21:45:07.664Z,8.10
2022-12-04T21:47:54.783Z,11.67
2022-12-04T21:50:38.794Z,9.63
2022-12-04T21:53:22.889Z,4.27
2022-12-04T21:56:07.478Z,8.70
2022-12-04T21:58:51.536Z,9.73
2022-12-04T22:01:35.473Z,11.40
2022-12-04T22:04:21.379Z,11.47
2022-12-04T22:07:05.057Z,5.43
2022-12-04T22:09:48.876Z,8.67
2022-12-04T22:12:49.028Z,8.07
2022-12-04T22:15:39.152Z,3.33
2022-12-04T22:18:23.189Z,5.00
2022-12-04T22:21:09.983Z,4.97
2022-12-04T22:23:56.708Z,4.37
2022-12-04T22:26:40.586Z,6.00
2022-12-04T22:29:49.096Z,5.73
2022-12-04T22:32:28.227Z,6.63
2022-12-04T22:35:12.112Z,8.00
2022-12-04T22:37:57.157Z,6.80
2022-12-04T22:40:41.074Z,8.10
2022-12-04T22:43:24.829Z,8.23
2022-12-04T22:46:08.766Z,5.90
2022-12-04T22:48:52.530Z,4.93
2022-12-04T22:51:36.370Z,5.50
2022-12-04T22:54:21.532Z,6.07
2022-12-04T22:57:05.538Z,5.47
2022-12-04T22:59:49.433Z,6.00
2022-12-04T23:02:34.257Z,4.47
2022-12-04T23:05:18.217Z,6.50
2022-12-04T23:08:02.141Z,4.33
2022-12-04T23:10:47.235Z,7.23
2022-12-04T23:13:31.025Z,4.93
2022-12-04T23:16:19.837Z,7.90
2022-12-04T23:19:05.016Z,5.80
2022-12-04T23:21:56.601Z,4.43
2022-12-04T23:24:41.587Z,5.93
2022-12-04T23:27:27.158Z,4.63
2022-12-04T23:30:11.345Z,5.50
2022-12-04T23:32:55.299Z,5.30
2022-12-04T23:35:39.266Z,4.10
2022-12-04T23:38:24.324Z,11.03
2022-12-04T23:41:12.001Z,12.07
2022-12-04T23:43:57.854Z,7.83
2022-12-04T23:46:42.072Z,6.67
2022-12-04T23:49:26.092Z,6.47
2022-12-04T23:52:10.105Z,9.40
2022-12-04T23:54:54.166Z,8.33
2022-12-04T23:57:38.270Z,6.13
